createdAt,value
2023-04-26T00:04:32.613Z,7.71
2023-04-26T00:09:35.304Z,7.64
2023-04-26T00:14:36.986Z,7.62
2023-04-26T00:19:39.790Z,7.59
2023-04-26T00:24:42.028Z,7.57
2023-04-26T00:29:46.410Z,7.56
2023-04-26T00:34:48.137Z,7.48
2023-04-26T00:39:52.733Z,7.47
2023-04-26T00:44:57.570Z,7.40
2023-04-26T00:50:01.388Z,7.36
2023-04-26T00:55:03.368Z,7.36
2023-04-26T01:00:05.847Z,7.32
2023-04-26T01:05:07.979Z,7.31
2023-04-26T01:10:10.524Z,7.26
2023-04-26T01:15:13.762Z,7.20
2023-04-26T01:20:15.484Z,7.18
2023-04-26T01:25:18.307Z,7.16
2023-04-26T01:30:20.238Z,7.05
2023-04-26T01:35:22.495Z,7.06
2023-04-26T01:40:24.246Z,7.10
2023-04-26T01:45:26.002Z,6.98
2023-04-26T01:50:46.236Z,7.03
2023-04-26T01:55:48.235Z,6.92
2023-04-26T02:00:49.874Z,6.82
2023-04-26T02:05:51.486Z,6.91
2023-04-26T02:10:53.259Z,6.76
2023-04-26T02:15:56.845Z,6.80
2023-04-26T02:20:58.538Z,6.72
2023-04-26T02:26:00.201Z,6.64
2023-04-26T02:31:02.773Z,6.53
2023-04-26T02:36:06.680Z,6.54
2023-04-26T02:41:08.466Z,6.55
2023-04-26T02:46:10.269Z,6.60
2023-04-26T02:51:12.012Z,6.51
2023-04-26T02:56:16.361Z,6.44
2023-04-26T03:01:18.926Z,6.38
2023-04-26T03:06:21.549Z,6.49
2023-04-26T03:11:23.313Z,6.46
2023-04-26T03:16:28.180Z,6.29
2023-04-26T03:21:30.050Z,6.26
2023-04-26T03:26:32.367Z,6.35
2023-04-26T03:31:34.698Z,6.21
2023-04-26T03:36:36.426Z,6.26
2023-04-26T03:41:41.312Z,6.39
2023-04-26T03:46:45.958Z,6.46
2023-04-26T03:51:47.639Z,6.39
2023-04-26T03:56:50.558Z,6.43
2023-04-26T04:01:52.398Z,6.43
2023-04-26T04:06:56.110Z,6.51
2023-04-26T04:11:57.856Z,6.48
2023-04-26T04:17:00.941Z,6.40
2023-04-26T04:22:04.118Z,6.48
2023-04-26T04:27:05.856Z,6.52
2023-04-26T04:32:08.086Z,6.54
2023-04-26T04:37:11.729Z,6.65
2023-04-26T04:42:14.208Z,6.65
2023-04-26T04:47:16.103Z,6.51
2023-04-26T04:52:19.083Z,6.54
2023-04-26T04:57:20.956Z,6.63
2023-04-26T05:02:25.148Z,6.63
2023-04-26T05:07:28.991Z,6.69
2023-04-26T05:12:31.530Z,6.66
2023-04-26T05:17:34.044Z,6.82
2023-04-26T05:22:50.083Z,6.94
2023-04-26T05:27:51.981Z,7.05
2023-04-26T05:33:08.158Z,7.10
2023-04-26T05:38:22.347Z,7.02
2023-04-26T05:43:24.077Z,7.07
2023-04-26T05:48:26.305Z,7.12
2023-04-26T05:53:28.097Z,7.14
2023-04-26T05:58:30.252Z,7.02
2023-04-26T06:03:32.278Z,7.23
2023-04-26T06:08:34.604Z,7.25
2023-04-26T06:13:36.215Z,7.39
2023-04-26T06:18:38.064Z,7.39
2023-04-26T06:23:41.473Z,7.41
2023-04-26T06:28:44.422Z,7.49
2023-04-26T06:33:46.120Z,7.52
2023-04-26T06:38:48.091Z,7.57
2023-04-26T06:43:49.825Z,7.58
2023-04-26T06:48:56.244Z,7.69
2023-04-26T06:54:01.418Z,7.72
2023-04-26T06:59:05.380Z,7.77
2023-04-26T07:04:08.358Z,7.77
2023-04-26T07:09:10.230Z,7.71
2023-04-26T07:14:12.014Z,7.73
2023-04-26T07:19:17.905Z,7.73
2023-04-26T07:24:19.621Z,7.85
2023-04-26T07:29:21.657Z,7.92
2023-04-26T07:34:23.313Z,7.81
2023-04-26T07:39:24.982Z,7.75
2023-04-26T07:44:26.766Z,7.86
2023-04-26T07:49:28.418Z,8.01
2023-04-26T07:54:30.131Z,7.96
2023-04-26T07:59:31.758Z,8.14
2023-04-26T08:04:34.536Z,8.09
2023-04-26T08:09:36.396Z,8.46
2023-04-26T08:14:38.670Z,8.09
2023-04-26T08:19:41.322Z,7.88
2023-04-26T08:24:49.747Z,7.88
2023-04-26T08:29:52.248Z,8.32
2023-04-26T08:34:54.470Z,8.41
2023-04-26T08:39:56.126Z,8.38
2023-04-26T08:45:01.092Z,8.41
2023-04-26T08:50:05.386Z,8.51
2023-04-26T08:55:10.141Z,8.69
2023-04-26T09:00:16.122Z,9.01
2023-04-26T09:05:18.763Z,8.95
2023-04-26T09:10:22.155Z,8.98
2023-04-26T09:15:27.772Z,8.88
2023-04-26T09:20:31.385Z,9.17
2023-04-26T09:25:33.368Z,9.39
2023-04-26T09:30:39.899Z,9.38
2023-04-26T09:35:43.390Z,9.16
2023-04-26T09:40:51.522Z,9.17
2023-04-26T09:45:58.325Z,9.54
2023-04-26T09:51:14.083Z,9.69
2023-04-26T09:56:19.029Z,9.80
2023-04-26T10:01:20.952Z,10.11
2023-04-26T10:06:23.059Z,10.66
2023-04-26T10:11:24.860Z,11.27
2023-04-26T10:16:26.486Z,11.62
2023-04-26T10:21:35.273Z,11.73
2023-04-26T10:26:54.917Z,11.33
2023-04-26T10:32:02.956Z,11.94
2023-04-26T10:37:17.162Z,11.94
2023-04-26T10:42:27.406Z,11.97
2023-04-26T10:47:35.997Z,12.47
2023-04-26T10:53:05.532Z,12.32
2023-04-26T10:58:35.568Z,12.25
2023-04-26T11:03:38.596Z,12.55
2023-04-26T11:08:40.853Z,12.60
2023-04-26T11:13:44.121Z,11.92
2023-04-26T11:18:47.892Z,12.33
2023-04-26T11:23:55.911Z,11.83
2023-04-26T11:28:57.618Z,12.60
2023-04-26T11:34:05.517Z,12.82
2023-04-26T11:39:09.462Z,12.78
2023-04-26T11:44:12.686Z,12.47
2023-04-26T11:49:18.041Z,13.56
2023-04-26T11:54:37.792Z,13.70
2023-04-26T11:59:39.760Z,13.89
2023-04-26T12:04:41.909Z,13.96
2023-04-26T12:09:46.077Z,14.33
2023-04-26T12:14:47.700Z,14.13
2023-04-26T12:19:50.209Z,14.15
2023-04-26T12:25:05.042Z,14.40
2023-04-26T12:30:07.597Z,14.09
2023-04-26T12:35:09.746Z,13.30
2023-04-26T12:40:12.421Z,13.03
2023-04-26T12:45:14.533Z,13.62
2023-04-26T12:50:18.663Z,14.10
2023-04-26T12:55:21.283Z,14.08
2023-04-26T13:00:22.956Z,14.35
2023-04-26T13:05:25.354Z,14.30
2023-04-26T13:10:27.144Z,14.55
2023-04-26T13:15:29.931Z,14.47
2023-04-26T13:20:31.764Z,14.36
2023-04-26T13:25:33.536Z,14.73
2023-04-26T13:30:37.787Z,14.92
2023-04-26T13:35:39.488Z,15.29
2023-04-26T13:40:41.347Z,15.37
2023-04-26T13:45:43.236Z,14.78
2023-04-26T13:50:47.987Z,14.60
2023-04-26T13:55:50.082Z,15.05
2023-04-26T14:00:52.350Z,14.23
2023-04-26T14:05:55.039Z,14.17
2023-04-26T14:10:56.774Z,13.84
2023-04-26T14:15:58.639Z,14.17
2023-04-26T14:21:00.885Z,13.82
2023-04-26T14:26:02.672Z,14.00
2023-04-26T14:31:04.614Z,13.67
2023-04-26T14:36:06.975Z,14.01
2023-04-26T14:41:09.212Z,14.36
2023-04-26T14:46:10.956Z,14.50
2023-04-26T14:51:12.909Z,14.03
2023-04-26T14:56:17.496Z,13.39
2023-04-26T15:01:19.168Z,13.43
2023-04-26T15:06:20.948Z,13.20
2023-04-26T15:11:22.586Z,13.09
2023-04-26T15:16:24.309Z,13.37
2023-04-26T15:21:27.452Z,13.10
2023-04-26T15:26:31.065Z,12.80
2023-04-26T15:31:32.852Z,12.57
2023-04-26T15:36:34.726Z,13.04
2023-04-26T15:41:36.446Z,12.78
2023-04-26T15:46:38.306Z,12.54
2023-04-26T15:51:40.083Z,12.10
2023-04-26T15:56:42.378Z,11.99
2023-04-26T16:01:44.221Z,12.24
2023-04-26T16:06:47.461Z,12.25
2023-04-26T16:11:49.284Z,12.18
2023-04-26T16:16:51.003Z,11.78
2023-04-26T16:21:52.675Z,11.90
2023-04-26T16:26:56.345Z,11.67
2023-04-26T16:31:58.138Z,11.66
2023-04-26T16:36:59.899Z,11.39
2023-04-26T16:42:02.315Z,11.61
2023-04-26T16:47:04.287Z,11.39
2023-04-26T16:52:06.020Z,11.63
2023-04-26T16:57:08.798Z,11.56
2023-04-26T17:02:10.426Z,11.27
2023-04-26T17:07:12.912Z,11.27
2023-04-26T17:12:17.303Z,11.28
2023-04-26T17:17:18.961Z,11.45
2023-04-26T17:22:20.746Z,11.32
2023-04-26T17:27:24.821Z,11.04
2023-04-26T17:32:26.772Z,10.99
2023-04-26T17:37:28.717Z,11.00
2023-04-26T17:42:30.549Z,11.11
2023-04-26T17:47:32.357Z,10.78
2023-04-26T17:52:34.250Z,10.85
2023-04-26T17:57:38.138Z,10.83
2023-04-26T18:02:40.189Z,10.71
2023-04-26T18:07:42.226Z,10.60
2023-04-26T18:12:43.911Z,10.38
2023-04-26T18:17:49.528Z,10.41
2023-04-26T18:22:51.585Z,10.51
2023-04-26T18:27:53.337Z,10.47
2023-04-26T18:32:55.069Z,10.45
2023-04-26T18:37:57.201Z,10.15
2023-04-26T18:42:58.898Z,10.22
2023-04-26T18:48:00.885Z,10.20
2023-04-26T18:53:02.934Z,10.07
2023-04-26T18:58:04.591Z,10.05
2023-04-26T19:03:06.714Z,10.05
2023-04-26T19:08:09.158Z,9.93
2023-04-26T19:13:11.194Z,9.97
2023-04-26T19:18:12.936Z,9.93
2023-04-26T19:23:16.971Z,9.89
2023-04-26T19:28:18.769Z,9.80
2023-04-26T19:33:20.714Z,9.71
2023-04-26T19:38:23.579Z,9.59
2023-04-26T19:43:25.208Z,9.59
2023-04-26T19:48:27.824Z,9.55
2023-04-26T19:53:29.461Z,9.51
2023-04-26T19:58:32.451Z,9.49
2023-04-26T20:03:34.320Z,9.32
2023-04-26T20:08:55.850Z,9.26
2023-04-26T20:13:57.444Z,9.27
2023-04-26T20:18:59.038Z,9.20
2023-04-26T20:24:00.715Z,9.20
2023-04-26T20:29:02.420Z,9.14
2023-04-26T20:34:04.117Z,9.06
2023-04-26T20:39:06.000Z,9.01
2023-04-26T20:44:07.881Z,9.08
2023-04-26T20:49:09.742Z,9.06
2023-04-26T20:54:11.673Z,9.04
2023-04-26T20:59:13.514Z,8.93
2023-04-26T21:04:16.055Z,8.72
2023-04-26T21:09:18.223Z,8.69
2023-04-26T21:14:19.877Z,8.64
2023-04-26T21:19:22.048Z,8.65
2023-04-26T21:24:23.847Z,8.61
2023-04-26T21:29:25.579Z,8.50
2023-04-26T21:34:27.289Z,8.18
2023-04-26T21:39:29.002Z,8.31
2023-04-26T21:44:31.930Z,8.28
2023-04-26T21:49:34.605Z,8.18
2023-04-26T21:54:36.837Z,8.20
2023-04-26T21:59:42.155Z,8.12
2023-04-26T22:04:43.810Z,8.05
2023-04-26T22:09:48.745Z,8.05
2023-04-26T22:14:50.482Z,8.01
2023-04-26T22:19:52.072Z,8.03
2023-04-26T22:24:53.721Z,7.93
2023-04-26T22:29:55.340Z,7.96
2023-04-26T22:34:57.027Z,7.88
2023-04-26T22:39:58.847Z,7.84
2023-04-26T22:45:01.025Z,7.71
2023-04-26T22:50:03.225Z,7.66
2023-04-26T22:55:07.957Z,7.73
2023-04-26T23:00:12.283Z,7.77
2023-04-26T23:05:14.019Z,7.71
2023-04-26T23:10:17.986Z,7.68
2023-04-26T23:15:19.900Z,7.67
2023-04-26T23:20:21.766Z,7.32
2023-04-26T23:25:23.592Z,7.20
2023-04-26T23:30:25.294Z,7.40
2023-04-26T23:35:26.971Z,7.43
2023-04-26T23:40:28.659Z,7.41
2023-04-26T23:45:30.554Z,7.38
2023-04-26T23:50:32.314Z,7.34
2023-04-26T23:55:33.987Z,7.27
